Time;durP1;ratioP1;P1;durP2;ratioP2;P2;SDS_P1;SDS_P2;PMS_P1;PMS_P2;Temp;Humidity;BMP_temperature;BMP_pressure;BME280_temperature;BME280_humidity;BME280_pressure;Samples;Min_cycle;Max_cycle;Signal;HPM_P1;HPM_P2
2022/10/04 00:01:07;;;;;;;7.37;6.67;;;9.00;1.00;;;;;;5043989;28;20207;-78
2022/10/04 00:03:42;;;;;;;11.33;7.03;;;9.00;1.00;;;;;;5040453;28;20486;-78
2022/10/04 00:06:17;;;;;;;8.83;6.90;;;9.10;99.90;;;;;;5046205;28;20558;-78
2022/10/04 00:08:50;;;;;;;10.53;7.47;;;9.00;1.00;;;;;;5048576;28;20457;-78
2022/10/04 00:11:23;;;;;;;9.20;7.60;;;9.00;1.00;;;;;;5035222;28;20528;-78
2022/10/04 00:13:55;;;;;;;8.53;7.07;;;9.00;1.00;;;;;;5050189;28;20446;-78
2022/10/04 00:16:29;;;;;;;8.90;8.10;;;9.10;99.90;;;;;;5047084;28;21042;-78
2022/10/04 00:19:23;;;;;;;8.10;7.30;;;8.90;99.90;;;;;;5040454;28;20550;-78
2022/10/04 00:22:11;;;;;;;12.47;7.83;;;9.00;99.90;;;;;;5041923;28;20489;-78
2022/10/04 00:25:22;;;;;;;7.67;6.90;;;9.00;99.90;;;;;;5048201;28;20470;-77
2022/10/04 00:28:42;;;;;;;9.20;6.17;;;9.00;99.90;;;;;;5043552;28;20489;-77
2022/10/04 00:31:13;;;;;;;8.10;6.80;;;8.90;99.90;;;;;;5044929;28;20530;-78
2022/10/04 00:33:43;;;;;;;6.40;5.80;;;8.80;99.90;;;;;;5044197;28;20448;-77
2022/10/04 00:36:47;;;;;;;6.67;5.87;;;8.80;99.90;;;;;;5044272;28;20456;-78
2022/10/04 00:39:26;;;;;;;8.93;6.13;;;8.80;1.00;;;;;;4998460;28;20452;-78
2022/10/04 00:42:26;;;;;;;7.50;5.43;;;8.80;99.90;;;;;;4997604;28;20655;-78
2022/10/04 00:44:59;;;;;;;6.73;5.90;;;8.70;1.00;;;;;;5034196;28;20490;-78
2022/10/04 00:47:32;;;;;;;5.83;5.27;;;8.70;99.90;;;;;;5052183;28;20468;-78
2022/10/04 00:50:10;;;;;;;5.90;5.33;;;8.70;99.90;;;;;;5042895;28;20466;-78
2022/10/04 00:52:45;;;;;;;7.57;5.60;;;8.70;99.90;;;;;;5044991;28;20520;-78
2022/10/04 00:55:23;;;;;;;7.77;5.57;;;8.70;99.90;;;;;;5046075;28;20513;-78
2022/10/04 00:57:58;;;;;;;6.70;5.10;;;8.60;99.90;;;;;;5047565;28;21014;-79
2022/10/04 01:00:32;;;;;;;6.70;4.20;;;8.60;1.00;;;;;;5042695;28;20462;-78
2022/10/04 01:03:04;;;;;;;4.73;4.33;;;8.60;99.90;;;;;;5044088;28;20470;-78
2022/10/04 01:05:35;;;;;;;6.43;5.27;;;8.60;99.90;;;;;;5047449;28;21033;-77
2022/10/04 01:08:09;;;;;;;5.80;5.30;;;8.60;99.90;;;;;;5042352;28;20471;-77
2022/10/04 01:10:42;;;;;;;5.77;5.17;;;8.60;99.90;;;;;;5045586;28;20455;-78
2022/10/04 01:13:13;;;;;;;6.43;5.10;;;8.50;99.90;;;;;;5047599;28;20520;-77
2022/10/04 01:15:50;;;;;;;6.83;5.07;;;8.50;99.90;;;;;;5042670;28;20462;-77
2022/10/04 01:18:29;;;;;;;6.30;5.47;;;8.50;99.90;;;;;;5046809;28;20485;-77
2022/10/04 01:21:02;;;;;;;5.23;4.87;;;8.40;1.00;;;;;;5044142;28;20560;-78
2022/10/04 01:23:40;;;;;;;5.13;4.73;;;8.40;1.00;;;;;;5038753;28;20481;-77
2022/10/04 01:26:38;;;;;;;5.57;5.10;;;8.60;99.90;;;;;;5042866;28;20455;-79
2022/10/04 01:29:10;;;;;;;6.27;5.67;;;8.60;99.90;;;;;;5040885;28;20511;-78
2022/10/04 01:31:41;;;;;;;6.73;4.97;;;8.60;99.90;;;;;;5019731;28;20453;-78
2022/10/04 01:34:13;;;;;;;6.33;5.50;;;8.50;99.90;;;;;;5043014;28;20448;-77
2022/10/04 01:36:43;;;;;;;7.27;5.60;;;8.40;99.90;;;;;;5049663;28;20520;-77
2022/10/04 01:39:13;;;;;;;7.17;6.13;;;8.40;1.00;;;;;;5043511;28;20436;-78
2022/10/04 01:41:52;;;;;;;5.90;5.30;;;8.40;99.90;;;;;;5036673;28;20458;-77
2022/10/04 01:44:27;;;;;;;6.27;5.60;;;8.40;99.90;;;;;;5046390;28;21029;-77
2022/10/04 01:46:59;;;;;;;6.10;5.60;;;8.50;99.90;;;;;;5047652;28;20981;-77
2022/10/04 01:49:31;;;;;;;6.60;6.00;;;8.50;99.90;;;;;;5043154;28;20501;-78
2022/10/04 01:52:05;;;;;;;7.80;5.53;;;8.50;99.90;;;;;;5044565;28;20451;-77
2022/10/04 01:54:37;;;;;;;6.10;5.37;;;8.60;99.90;;;;;;5047461;28;20492;-77
2022/10/04 01:57:12;;;;;;;8.50;6.20;;;8.60;99.90;;;;;;5046894;28;20491;-77
2022/10/04 01:59:43;;;;;;;6.07;5.40;;;8.60;99.90;;;;;;5050507;28;20453;-77
2022/10/04 02:02:21;;;;;;;7.83;5.80;;;8.40;99.90;;;;;;5025392;28;20516;-78
2022/10/04 02:04:53;;;;;;;6.20;5.60;;;8.30;99.90;;;;;;5045257;28;20515;-78
2022/10/04 02:07:25;;;;;;;6.50;5.90;;;8.30;99.90;;;;;;5027550;28;20494;-77
2022/10/04 02:09:58;;;;;;;6.37;5.77;;;8.40;99.90;;;;;;5042366;28;20537;-78
2022/10/04 02:12:30;;;;;;;6.70;6.10;;;8.50;99.90;;;;;;5048022;28;21358;-78
2022/10/04 02:15:01;;;;;;;7.30;4.73;;;8.30;99.90;;;;;;5047951;28;20499;-77
2022/10/04 02:17:32;;;;;;;5.80;5.40;;;8.30;99.90;;;;;;5048870;28;20471;-78
2022/10/04 02:20:01;;;;;;;6.23;5.63;;;8.20;99.90;;;;;;5045365;28;20444;-78
2022/10/04 02:22:30;;;;;;;5.60;5.20;;;8.10;99.90;;;;;;5045771;28;20453;-78
2022/10/04 02:25:00;;;;;;;10.63;7.27;;;8.10;99.90;;;;;;5047914;28;20933;-78
2022/10/04 02:27:30;;;;;;;7.53;6.70;;;8.10;99.90;;;;;;5040559;28;20580;-78
2022/10/04 02:30:03;;;;;;;7.47;5.70;;;8.10;1.00;;;;;;5025771;28;20556;-79
2022/10/04 02:35:19;;;;;;;5.87;4.90;;;8.20;99.90;;;;;;5046906;28;20478;-78
2022/10/04 02:37:53;;;;;;;6.70;4.43;;;8.10;99.90;;;;;;5040159;28;20551;-78
2022/10/04 02:40:29;;;;;;;5.20;4.80;;;8.20;99.90;;;;;;5044603;28;20608;-77
2022/10/04 02:43:02;;;;;;;5.67;5.17;;;8.10;99.90;;;;;;5047880;28;20444;-78
2022/10/04 02:45:41;;;;;;;6.30;5.77;;;8.10;99.90;;;;;;5045253;28;20486;-78
2022/10/04 02:48:23;;;;;;;5.87;5.23;;;8.10;99.90;;;;;;5041872;28;21033;-78
2022/10/04 02:50:55;;;;;;;6.87;5.00;;;8.10;99.90;;;;;;5044870;28;20789;-77
2022/10/04 02:53:31;;;;;;;8.00;5.80;;;8.10;99.90;;;;;;5048123;28;20457;-77
2022/10/04 02:56:02;;;;;;;5.83;5.33;;;8.10;1.00;;;;;;5041379;28;20445;-78
2022/10/04 02:58:31;;;;;;;5.10;4.73;;;8.10;1.00;;;;;;5043261;28;20466;-78
2022/10/04 03:01:00;;;;;;;7.63;5.30;;;8.20;1.00;;;;;;5040535;28;20462;-78
2022/10/04 03:03:30;;;;;;;5.47;5.07;;;8.30;99.90;;;;;;5049067;28;20443;-77
2022/10/04 03:06:02;;;;;;;7.03;5.03;;;8.20;99.90;;;;;;5046003;28;20485;-78
2022/10/04 03:08:35;;;;;;;4.90;4.50;;;8.20;99.90;;;;;;5043405;28;20481;-78
2022/10/04 03:11:05;;;;;;;6.20;5.70;;;8.10;99.90;;;;;;5042857;28;20466;-77
2022/10/04 03:13:36;;;;;;;6.57;4.93;;;8.10;1.00;;;;;;5046764;28;20514;-77
2022/10/04 03:16:05;;;;;;;6.10;4.67;;;8.10;99.90;;;;;;5047204;28;20442;-77
2022/10/04 03:18:36;;;;;;;5.60;5.10;;;8.00;99.90;;;;;;5049165;28;20469;-78
2022/10/04 03:21:08;;;;;;;5.60;5.07;;;8.00;1.00;;;;;;5047433;28;20452;-78
2022/10/04 03:23:38;;;;;;;5.90;4.80;;;7.90;1.00;;;;;;5045169;28;20450;-78
2022/10/04 03:26:18;;;;;;;11.87;6.00;;;8.00;1.00;;;;;;5046169;28;20497;-78
2022/10/04 03:28:46;;;;;;;8.13;4.80;;;8.10;99.90;;;;;;5042250;28;20456;-78
2022/10/04 03:31:15;;;;;;;5.43;4.93;;;8.10;99.90;;;;;;5049000;28;20461;-78
2022/10/04 03:33:44;;;;;;;5.37;4.50;;;8.10;99.90;;;;;;5041809;28;20539;-79
2022/10/04 03:36:15;;;;;;;5.07;4.67;;;8.10;99.90;;;;;;5044090;28;20458;-78
2022/10/04 03:38:44;;;;;;;5.37;4.70;;;8.10;1.00;;;;;;5041207;28;20539;-78
2022/10/04 03:41:15;;;;;;;5.00;4.60;;;8.10;99.90;;;;;;5044091;28;20466;-77
2022/10/04 03:43:48;;;;;;;4.70;4.40;;;8.10;99.90;;;;;;5051396;28;20504;-77
2022/10/04 03:46:18;;;;;;;5.30;4.80;;;7.90;99.90;;;;;;5048122;28;20495;-78
2022/10/04 03:48:50;;;;;;;5.77;5.33;;;7.90;1.00;;;;;;5048676;28;20532;-78
2022/10/04 03:51:21;;;;;;;5.20;4.60;;;8.00;99.90;;;;;;5047019;28;20975;-78
2022/10/04 03:53:52;;;;;;;6.37;5.33;;;8.10;99.90;;;;;;5052875;28;20479;-78
2022/10/04 03:56:27;;;;;;;5.27;4.73;;;8.00;99.90;;;;;;5051392;28;20512;-78
2022/10/04 03:58:56;;;;;;;5.43;4.90;;;8.00;99.90;;;;;;5050851;28;20458;-78
2022/10/04 04:01:40;;;;;;;5.50;5.03;;;8.10;99.90;;;;;;5039410;28;20508;-78
2022/10/04 04:04:18;;;;;;;5.40;5.00;;;8.00;99.90;;;;;;5042998;28;20484;-78
2022/10/04 04:06:53;;;;;;;4.83;4.43;;;8.00;99.90;;;;;;5034652;28;20533;-78
2022/10/04 04:09:25;;;;;;;5.10;4.70;;;8.00;99.90;;;;;;5046624;28;20515;-79
2022/10/04 04:11:57;;;;;;;5.33;4.93;;;8.10;99.90;;;;;;5048783;28;20460;-79
2022/10/04 04:14:28;;;;;;;5.80;5.30;;;8.00;99.90;;;;;;5048259;28;20453;-79
2022/10/04 04:17:17;;;;;;;6.30;5.37;;;8.00;99.90;;;;;;5046316;28;20472;-78
2022/10/04 04:19:46;;;;;;;5.80;5.30;;;7.90;1.00;;;;;;5043125;28;20458;-78
2022/10/04 04:22:16;;;;;;;6.90;6.30;;;7.90;1.00;;;;;;5051483;28;20460;-79
2022/10/04 04:24:48;;;;;;;6.10;5.63;;;7.90;1.00;;;;;;5028087;28;20470;-79
2022/10/04 04:27:20;;;;;;;6.50;5.30;;;8.00;99.90;;;;;;5048227;28;21207;-79
2022/10/04 04:29:53;;;;;;;4.43;4.03;;;8.00;99.90;;;;;;5049898;28;20528;-79
2022/10/04 04:32:27;;;;;;;4.70;4.37;;;7.90;1.00;;;;;;5049952;28;20534;-80
2022/10/04 04:34:59;;;;;;;5.80;5.20;;;7.90;1.00;;;;;;5045492;28;20463;-79
2022/10/04 04:37:27;;;;;;;5.90;5.23;;;7.80;1.00;;;;;;5048077;28;20560;-78
2022/10/04 04:39:56;;;;;;;6.70;5.40;;;7.80;1.00;;;;;;5024111;28;20469;-78
2022/10/04 04:42:30;;;;;;;6.13;5.57;;;7.90;99.90;;;;;;5045835;28;20661;-78
2022/10/04 04:45:01;;;;;;;8.83;5.10;;;7.90;99.90;;;;;;5046818;28;20507;-77
2022/10/04 04:47:33;;;;;;;5.80;5.30;;;7.90;1.00;;;;;;5050353;28;20474;-78
2022/10/04 04:50:06;;;;;;;6.03;5.13;;;8.00;1.00;;;;;;5042861;28;20822;-78
2022/10/04 04:52:36;;;;;;;6.13;5.63;;;7.90;1.00;;;;;;5044581;28;20569;-78
2022/10/04 04:55:06;;;;;;;6.23;5.10;;;8.00;1.00;;;;;;5042827;28;20486;-78
2022/10/04 04:57:38;;;;;;;4.90;4.47;;;8.00;1.00;;;;;;5048825;28;20466;-79
2022/10/04 05:00:08;;;;;;;5.80;5.33;;;8.10;1.00;;;;;;5044675;28;20881;-78
2022/10/04 05:02:38;;;;;;;6.50;5.87;;;8.20;99.90;;;;;;5047289;28;20453;-78
2022/10/04 05:05:17;;;;;;;5.90;5.30;;;8.10;99.90;;;;;;5038507;28;20459;-78
2022/10/04 05:07:46;;;;;;;5.83;5.23;;;8.10;99.90;;;;;;5041712;28;20524;-79
2022/10/04 05:10:29;;;;;;;6.03;5.17;;;7.90;99.90;;;;;;5045279;28;20537;-77
2022/10/04 05:13:00;;;;;;;6.30;4.70;;;7.90;99.90;;;;;;5039281;28;20485;-77
2022/10/04 05:15:34;;;;;;;5.73;5.13;;;7.90;99.90;;;;;;5024902;28;20452;-79
2022/10/04 05:18:12;;;;;;;9.33;6.50;;;7.90;99.90;;;;;;5042418;28;20487;-78
2022/10/04 05:20:43;;;;;;;11.30;6.43;;;7.80;99.90;;;;;;5046531;28;20828;-78
2022/10/04 05:23:13;;;;;;;7.83;7.03;;;7.70;99.90;;;;;;5045753;28;20972;-78
2022/10/04 05:25:42;;;;;;;14.40;8.90;;;7.70;99.90;;;;;;5046478;28;20477;-79
2022/10/04 05:28:14;;;;;;;13.10;9.50;;;7.70;99.90;;;;;;5049303;28;20465;-79
2022/10/04 05:30:49;;;;;;;11.77;8.00;;;7.70;99.90;;;;;;5042060;28;20548;-78
2022/10/04 05:33:24;;;;;;;10.93;8.60;;;7.70;99.90;;;;;;5046278;28;20855;-77
2022/10/04 05:36:20;;;;;;;10.97;9.20;;;7.60;99.90;;;;;;5044817;28;20451;-79
2022/10/04 05:38:53;;;;;;;9.47;8.20;;;7.70;99.90;;;;;;5024107;28;20725;-79
2022/10/04 05:41:28;;;;;;;13.07;10.00;;;7.80;99.90;;;;;;5043643;28;20448;-78
2022/10/04 05:44:26;;;;;;;9.70;7.87;;;7.60;99.90;;;;;;5042088;28;20278;-79
2022/10/04 05:46:57;;;;;;;8.83;7.60;;;7.80;99.90;;;;;;5042085;28;21004;-78
2022/10/04 05:49:29;;;;;;;12.23;7.50;;;7.90;99.90;;;;;;5043501;28;20563;-79
2022/10/04 05:52:01;;;;;;;10.50;8.50;;;7.90;99.90;;;;;;5042771;28;20464;-78
2022/10/04 05:54:31;;;;;;;9.13;8.23;;;7.90;99.90;;;;;;5046034;28;20808;-78
2022/10/04 05:57:34;;;;;;;9.93;7.20;;;7.90;99.90;;;;;;5036781;28;20471;-79
2022/10/04 06:00:11;;;;;;;11.77;8.03;;;8.00;99.90;;;;;;5034863;28;20469;-79
2022/10/04 06:03:02;;;;;;;11.80;8.60;;;8.00;99.90;;;;;;5046091;28;20523;-79
2022/10/04 06:05:42;;;;;;;10.70;7.50;;;8.10;99.90;;;;;;5044382;28;20477;-79
2022/10/04 06:08:22;;;;;;;9.70;8.00;;;8.10;99.90;;;;;;5034765;28;20478;-79
2022/10/04 06:11:03;;;;;;;8.93;8.00;;;8.20;99.90;;;;;;5024885;28;20811;-79
2022/10/04 06:13:55;;;;;;;9.30;8.10;;;8.20;99.90;;;;;;5032928;28;20939;-79
2022/10/04 06:16:37;;;;;;;8.73;7.20;;;8.20;99.90;;;;;;5037028;28;20526;-79
2022/10/04 06:19:32;;;;;;;8.57;7.50;;;8.20;99.90;;;;;;5040497;28;20450;-79
2022/10/04 06:22:15;;;;;;;8.10;6.90;;;8.30;99.90;;;;;;5032250;28;20228;-81
2022/10/04 06:24:47;;;;;;;12.00;7.70;;;8.30;99.90;;;;;;5036562;28;20554;-79
2022/10/04 06:27:21;;;;;;;7.63;6.90;;;8.30;99.90;;;;;;5032610;28;20493;-80
2022/10/04 06:29:52;;;;;;;10.30;7.40;;;8.40;99.90;;;;;;5035133;28;20454;-79
2022/10/04 06:32:48;;;;;;;7.97;7.20;;;8.40;1.00;;;;;;5041774;28;20454;-79
2022/10/04 06:35:41;;;;;;;8.93;7.03;;;8.50;1.00;;;;;;5036255;28;20544;-79
2022/10/04 06:38:38;;;;;;;7.93;7.13;;;8.60;99.90;;;;;;5035986;28;21025;-79
2022/10/04 06:41:25;;;;;;;9.03;7.33;;;8.70;1.00;;;;;;5034964;28;20471;-80
2022/10/04 06:44:13;;;;;;;9.73;7.20;;;8.70;1.00;;;;;;5040310;28;20462;-79
2022/10/04 06:46:47;;;;;;;10.30;8.60;;;8.80;1.00;;;;;;5032402;28;20575;-79
2022/10/04 06:49:37;;;;;;;6.70;6.20;;;8.90;1.00;;;;;;5028082;28;20460;-79
2022/10/04 06:52:33;;;;;;;7.33;6.47;;;9.00;1.00;;;;;;5053064;28;20449;-79
2022/10/04 06:55:36;;;;;;;8.57;7.37;;;9.30;1.00;;;;;;5025370;28;20449;-79
2022/10/04 06:58:16;;;;;;;7.83;7.13;;;9.50;1.00;;;;;;5039818;28;20464;-79
2022/10/04 07:00:52;;;;;;;7.57;7.03;;;9.70;1.00;;;;;;5038485;28;20458;-79
2022/10/04 07:03:26;;;;;;;7.67;6.87;;;9.70;1.00;;;;;;5041705;28;20462;-79
2022/10/04 07:05:59;;;;;;;9.40;7.90;;;9.80;1.00;;;;;;5036650;28;20447;-79
2022/10/04 07:08:37;;;;;;;9.17;8.30;;;9.80;1.00;;;;;;5045908;28;20487;-80
2022/10/04 07:11:13;;;;;;;7.80;7.10;;;9.90;1.00;;;;;;5036333;28;20535;-79
2022/10/04 07:13:49;;;;;;;10.83;8.60;;;10.00;1.00;;;;;;5041117;28;20553;-79
2022/10/04 07:16:29;;;;;;;11.93;6.90;;;10.00;1.00;;;;;;5044408;28;20475;-80
2022/10/04 07:19:07;;;;;;;9.63;7.47;;;10.00;1.00;;;;;;5027474;28;20489;-79
2022/10/04 07:21:42;;;;;;;6.97;6.37;;;10.10;1.00;;;;;;5046464;28;20457;-79
2022/10/04 07:24:21;;;;;;;8.30;7.50;;;10.10;1.00;;;;;;5047778;28;20474;-79
2022/10/04 07:26:52;;;;;;;8.80;7.50;;;10.20;1.00;;;;;;5053347;28;21078;-79
2022/10/04 07:29:23;;;;;;;8.77;7.90;;;10.20;1.00;;;;;;5040234;28;20451;-79
2022/10/04 07:32:04;;;;;;;8.40;7.70;;;10.30;1.00;;;;;;5040960;28;20487;-79
2022/10/04 07:34:36;;;;;;;7.37;6.67;;;10.30;1.00;;;;;;5041056;28;20466;-79
2022/10/04 07:37:11;;;;;;;11.60;7.17;;;10.40;1.00;;;;;;5039719;28;20474;-80
2022/10/04 07:39:49;;;;;;;8.33;7.60;;;10.40;1.00;;;;;;5047796;28;20471;-79
2022/10/04 07:42:25;;;;;;;8.03;7.47;;;10.50;1.00;;;;;;5037420;28;20462;-80
2022/10/04 07:45:05;;;;;;;8.67;7.97;;;10.50;1.00;;;;;;5038179;28;20454;-79
2022/10/04 07:47:34;;;;;;;7.23;6.80;;;10.60;1.00;;;;;;5040675;28;20977;-80
2022/10/04 07:50:23;;;;;;;7.43;6.93;;;10.70;1.00;;;;;;5029033;28;20857;-80
2022/10/04 07:52:57;;;;;;;8.60;6.67;;;10.80;99.90;;;;;;5039392;28;20503;-79
2022/10/04 07:55:37;;;;;;;9.67;8.87;;;10.80;1.00;;;;;;5030995;28;20462;-80
2022/10/04 07:58:33;;;;;;;8.37;7.77;;;10.90;1.00;;;;;;5032676;28;20475;-79
2022/10/04 08:01:07;;;;;;;7.80;7.40;;;11.00;1.00;;;;;;5031778;28;20450;-81
2022/10/04 08:03:52;;;;;;;11.57;8.63;;;11.10;1.00;;;;;;5039709;28;20459;-80
2022/10/04 08:06:28;;;;;;;10.67;9.70;;;11.10;1.00;;;;;;5035577;28;20470;-80
2022/10/04 08:09:23;;;;;;;10.60;9.57;;;11.20;1.00;;;;;;5040222;28;20582;-80
2022/10/04 08:12:00;;;;;;;11.00;9.90;;;11.30;1.00;;;;;;5041305;28;20491;-80
2022/10/04 08:14:39;;;;;;;9.80;9.00;;;11.50;1.00;;;;;;5036760;28;20459;-80
2022/10/04 08:17:17;;;;;;;10.60;9.67;;;11.60;99.90;;;;;;5035487;28;20475;-80
2022/10/04 08:19:57;;;;;;;9.60;9.00;;;11.60;1.00;;;;;;5031926;28;20447;-81
2022/10/04 08:22:42;;;;;;;11.33;10.40;;;11.80;99.90;;;;;;5018257;28;20467;-81
2022/10/04 08:25:21;;;;;;;9.03;8.53;;;12.10;99.90;;;;;;5037152;28;20716;-81
2022/10/04 08:31:04;;;;;;;9.83;8.93;;;12.40;1.00;;;;;;5036394;28;20460;-80
2022/10/04 08:33:52;;;;;;;9.37;8.57;;;12.60;1.00;;;;;;5045180;28;20447;-81
2022/10/04 08:36:32;;;;;;;9.37;8.20;;;12.60;1.00;;;;;;5046335;28;20540;-80
2022/10/04 08:39:01;;;;;;;11.43;7.40;;;13.00;99.90;;;;;;5034199;28;20484;-81
2022/10/04 08:42:00;;;;;;;8.27;7.77;;;13.20;1.00;;;;;;5044769;28;20448;-81
2022/10/04 08:48:21;;;;;;;8.87;8.10;;;13.70;18.40;;;;;;5094759;27;20597;-81
2022/10/04 08:51:19;;;;;;;10.07;8.87;;;14.70;1.00;;;;;;5081110;28;20459;-80
2022/10/04 08:54:28;;;;;;;8.80;8.00;;;15.70;99.90;;;;;;5079893;28;20497;-81
2022/10/04 08:57:05;;;;;;;8.00;7.40;;;16.50;1.00;;;;;;5079396;28;20557;-80
2022/10/04 09:00:03;;;;;;;7.03;6.53;;;17.00;1.00;;;;;;5071047;28;20465;-80
2022/10/04 09:03:13;;;;;;;6.50;6.00;;;17.40;1.00;;;;;;5070524;28;20909;-80
2022/10/04 09:06:10;;;;;;;6.67;5.60;;;17.30;99.90;;;;;;5071745;28;20500;-80
2022/10/04 09:09:27;;;;;;;6.13;5.50;;;18.70;99.90;;;;;;5075565;28;20484;-80
2022/10/04 09:12:20;;;;;;;5.30;4.90;;;20.00;99.90;;;;;;5074651;28;20446;-81
2022/10/04 09:15:12;;;;;;;5.50;5.20;;;20.20;99.90;;;;;;5069741;28;20576;-83
2022/10/04 09:17:53;;;;;;;5.53;5.23;;;20.70;99.90;;;;;;5078465;28;20474;-81
2022/10/04 09:20:35;;;;;;;5.00;4.60;;;21.10;99.90;;;;;;5072889;28;20449;-82
2022/10/04 09:23:21;;;;;;;5.47;4.97;;;22.00;99.90;;;;;;5073861;28;20451;-80
2022/10/04 09:26:05;;;;;;;4.97;4.57;;;22.70;99.90;;;;;;5079020;28;20466;-81
2022/10/04 09:28:59;;;;;;;4.97;4.53;;;23.00;99.90;;;;;;5080953;28;20467;-81
2022/10/04 09:32:05;;;;;;;4.50;4.03;;;22.80;99.90;;;;;;5075058;28;20542;-81
2022/10/04 09:34:50;;;;;;;7.33;3.83;;;23.20;99.90;;;;;;5109249;28;20495;-81
2022/10/04 09:37:43;;;;;;;6.80;3.70;;;22.60;99.90;;;;;;5080028;28;20470;-81
2022/10/04 09:40:47;;;;;;;4.20;3.90;;;21.60;99.90;;;;;;5078658;28;20519;-81
2022/10/04 09:43:48;;;;;;;3.90;3.50;;;20.80;99.90;;;;;;5079226;28;22437;-80
2022/10/04 09:46:38;;;;;;;4.47;4.10;;;20.40;99.90;;;;;;5076666;28;20485;-81
2022/10/04 09:49:21;;;;;;;4.70;4.30;;;19.90;99.90;;;;;;5076535;28;20553;-80
2022/10/04 09:52:16;;;;;;;4.50;4.07;;;19.60;99.90;;;;;;5075377;28;20565;-80
2022/10/04 09:55:11;;;;;;;4.93;4.53;;;19.70;99.90;;;;;;5077411;28;20526;-79
2022/10/04 09:57:57;;;;;;;4.60;4.20;;;19.90;99.90;;;;;;5073759;28;20462;-81
2022/10/04 10:00:32;;;;;;;4.60;3.90;;;20.40;99.90;;;;;;5058591;28;20486;-80
2022/10/04 10:03:46;;;;;;;5.68;3.70;;;20.50;99.90;;;;;;5058179;28;20536;-80
2022/10/04 10:06:39;;;;;;;5.60;3.73;;;21.10;99.90;;;;;;5061528;28;20288;-81
2022/10/04 10:13:38;;;;;;;4.63;4.27;;;21.50;99.90;;;;;;5067515;28;21314;-80
2022/10/04 10:15:28;;;;;;;4.00;3.80;;;22.20;99.90;;;;;;5063309;28;20537;-81
2022/10/04 10:18:08;;;;;;;4.10;3.80;;;23.40;99.90;;;;;;5058081;28;20467;-81
2022/10/04 10:21:05;;;;;;;4.23;3.83;;;24.40;99.90;;;;;;5063917;28;20482;-79
2022/10/04 10:24:02;;;;;;;4.60;3.00;;;25.80;99.90;;;;;;5062275;28;20447;-81
2022/10/04 10:26:53;;;;;;;3.87;3.60;;;27.60;99.90;;;;;;5055788;28;20490;-81
2022/10/04 10:30:03;;;;;;;4.20;3.80;;;27.80;99.90;;;;;;5067675;28;20540;-80
2022/10/04 10:32:45;;;;;;;5.17;3.50;;;29.30;99.90;;;;;;5061187;28;20532;-80
2022/10/04 10:35:23;;;;;;;4.10;3.17;;;31.10;99.90;;;;;;5067396;28;20795;-80
2022/10/04 10:38:07;;;;;;;3.47;3.23;;;31.00;99.90;;;;;;5064649;28;20816;-80
2022/10/04 10:40:47;;;;;;;3.67;3.47;;;31.70;99.90;;;;;;5061250;28;21326;-80
2022/10/04 10:43:46;;;;;;;2.90;2.53;;;32.40;99.90;;;;;;5069112;28;20454;-79
2022/10/04 10:46:41;;;;;;;3.23;2.50;;;32.50;99.90;;;;;;5065912;28;20486;-79
2022/10/04 10:49:39;;;;;;;3.00;2.40;;;33.00;99.90;;;;;;5063359;28;20529;-80
2022/10/04 10:52:39;;;;;;;2.30;2.10;;;34.00;99.90;;;;;;5058690;28;20450;-80
2022/10/04 10:55:48;;;;;;;2.70;2.50;;;33.60;99.90;;;;;;5058765;28;21009;-79
2022/10/04 10:58:43;;;;;;;3.90;2.37;;;33.40;99.90;;;;;;5027148;28;20237;-79
2022/10/04 11:01:45;;;;;;;2.30;2.20;;;33.60;99.90;;;;;;5061425;28;20538;-79
2022/10/04 11:04:53;;;;;;;3.10;2.37;;;33.40;99.90;;;;;;5060425;28;20460;-79
2022/10/04 11:07:49;;;;;;;2.53;2.10;;;28.70;99.90;;;;;;5055764;28;20522;-78
2022/10/04 11:11:05;;;;;;;3.60;2.60;;;25.90;99.90;;;;;;5054882;28;20837;-78
2022/10/04 11:14:10;;;;;;;3.20;2.90;;;23.50;99.90;;;;;;5019536;28;20526;-78
2022/10/04 11:17:02;;;;;;;2.37;2.17;;;22.60;99.90;;;;;;5018480;28;20467;-79
2022/10/04 11:20:23;;;;;;;3.13;2.10;;;22.10;99.90;;;;;;5055150;28;20461;-79
2022/10/04 11:23:36;;;;;;;2.30;2.20;;;21.60;99.90;;;;;;5060503;28;20502;-78
2022/10/04 11:26:40;;;;;;;2.57;2.37;;;20.70;99.90;;;;;;5057398;28;20597;-79
2022/10/04 11:29:23;;;;;;;2.87;2.67;;;20.60;99.90;;;;;;5057643;28;20451;-78
2022/10/04 11:32:48;;;;;;;2.40;2.10;;;20.30;99.90;;;;;;5057279;28;20479;-78
2022/10/04 11:35:46;;;;;;;2.40;2.20;;;20.50;99.90;;;;;;5057412;28;20549;-79
2022/10/04 11:38:28;;;;;;;3.77;2.63;;;20.40;99.90;;;;;;5057303;28;20573;-78
2022/10/04 11:41:13;;;;;;;4.20;2.23;;;20.50;99.90;;;;;;5080036;28;20816;-79
2022/10/04 11:44:14;;;;;;;3.53;2.17;;;20.60;99.90;;;;;;5059986;28;20450;-78
2022/10/04 11:46:49;;;;;;;2.00;1.90;;;20.70;99.90;;;;;;5053379;28;20472;-79
2022/10/04 11:49:47;;;;;;;6.10;2.30;;;20.90;99.90;;;;;;5057393;28;20462;-79
2022/10/04 11:52:50;;;;;;;2.50;1.90;;;20.80;99.90;;;;;;5061453;28;20455;-79
2022/10/04 11:55:43;;;;;;;2.40;2.30;;;20.80;99.90;;;;;;5056924;28;20467;-79
2022/10/04 11:58:17;;;;;;;4.10;1.80;;;20.60;99.90;;;;;;5065171;28;20474;-79
2022/10/04 12:01:15;;;;;;;2.43;1.93;;;20.50;99.90;;;;;;5058881;28;20533;-79
2022/10/04 12:04:15;;;;;;;3.43;1.90;;;20.60;99.90;;;;;;5058484;28;20504;-79
2022/10/04 12:07:07;;;;;;;2.20;1.93;;;20.70;99.90;;;;;;5058485;28;20462;-79
2022/10/04 12:09:42;;;;;;;3.00;1.63;;;20.50;99.90;;;;;;5059926;28;20459;-79
2022/10/04 12:12:37;;;;;;;2.17;2.07;;;20.30;99.90;;;;;;5059703;28;20578;-78
2022/10/04 12:15:35;;;;;;;2.17;2.07;;;20.40;99.90;;;;;;5060196;28;20463;-78
2022/10/04 12:18:40;;;;;;;1.80;1.70;;;20.20;99.90;;;;;;5004569;28;20481;-79
2022/10/04 12:21:37;;;;;;;5.53;1.90;;;20.30;99.90;;;;;;5054200;28;20489;-79
2022/10/04 12:24:20;;;;;;;3.73;1.97;;;20.30;99.90;;;;;;5055753;28;20454;-78
2022/10/04 12:27:18;;;;;;;2.13;1.80;;;20.30;99.90;;;;;;5055061;28;20664;-78
2022/10/04 12:30:14;;;;;;;2.30;2.10;;;20.40;99.90;;;;;;5059549;28;20561;-80
2022/10/04 12:33:02;;;;;;;1.90;1.80;;;20.30;99.90;;;;;;5060680;28;20458;-79
2022/10/04 12:35:42;;;;;;;2.00;1.80;;;20.40;99.90;;;;;;5061312;28;20958;-79
2022/10/04 12:38:46;;;;;;;2.80;2.00;;;20.20;99.90;;;;;;5093772;28;20498;-78
2022/10/04 12:41:28;;;;;;;1.90;1.67;;;20.10;99.90;;;;;;5092933;28;20469;-78
2022/10/04 12:44:07;;;;;;;2.00;1.83;;;20.20;99.90;;;;;;5058967;28;20457;-78
2022/10/04 12:46:47;;;;;;;2.03;1.90;;;20.10;99.90;;;;;;5063017;28;20950;-78
2022/10/04 12:49:28;;;;;;;2.23;2.03;;;20.20;99.90;;;;;;5060793;28;20471;-78
2022/10/04 12:52:06;;;;;;;1.80;1.70;;;20.20;99.90;;;;;;5059627;28;20457;-78
2022/10/04 12:54:39;;;;;;;1.90;1.80;;;20.20;99.90;;;;;;5092392;28;20454;-79
2022/10/04 12:57:43;;;;;;;1.70;1.60;;;20.30;99.90;;;;;;5060934;28;20474;-79
2022/10/04 13:00:18;;;;;;;3.80;1.87;;;20.40;99.90;;;;;;5048207;28;20474;-79
2022/10/04 13:03:28;;;;;;;2.33;2.23;;;20.40;99.90;;;;;;5055825;28;20452;-79
2022/10/04 13:06:06;;;;;;;1.83;1.50;;;20.40;99.90;;;;;;5043788;28;20469;-78
2022/10/04 13:08:58;;;;;;;1.70;1.60;;;20.40;99.90;;;;;;5060990;28;20476;-78
2022/10/04 13:11:51;;;;;;;2.07;1.53;;;20.40;99.90;;;;;;5058950;28;20446;-78
2022/10/04 13:14:46;;;;;;;1.70;1.60;;;20.40;99.90;;;;;;5061665;28;20465;-78
2022/10/04 13:17:30;;;;;;;1.70;1.60;;;20.30;99.90;;;;;;5057350;28;20473;-79
2022/10/04 13:20:26;;;;;;;2.00;1.80;;;20.40;99.90;;;;;;5052065;28;20574;-78
2022/10/04 13:22:58;;;;;;;1.50;1.40;;;20.30;99.90;;;;;;5056322;28;21021;-78
2022/10/04 13:25:44;;;;;;;1.50;1.40;;;20.30;99.90;;;;;;5054194;28;20550;-78
2022/10/04 13:28:21;;;;;;;2.37;1.80;;;20.30;99.90;;;;;;5059351;28;20483;-79
2022/10/04 13:31:00;;;;;;;1.40;1.30;;;20.40;99.90;;;;;;5056665;28;20454;-80
2022/10/04 13:33:39;;;;;;;1.53;1.10;;;20.40;99.90;;;;;;5076477;28;20462;-80
2022/10/04 13:36:13;;;;;;;1.30;1.30;;;20.40;99.90;;;;;;5060730;28;20438;-78
2022/10/04 13:39:23;;;;;;;2.87;1.40;;;20.40;99.90;;;;;;5059866;28;20472;-79
2022/10/04 13:42:16;;;;;;;1.50;1.40;;;20.40;99.90;;;;;;5036938;28;20462;-79
2022/10/04 13:45:03;;;;;;;2.13;1.60;;;20.40;99.90;;;;;;5061935;28;20486;-79
2022/10/04 13:47:54;;;;;;;1.37;1.27;;;20.40;99.90;;;;;;5065918;28;21051;-79
2022/10/04 13:50:47;;;;;;;2.77;1.17;;;20.20;99.90;;;;;;5060862;28;21004;-79
2022/10/04 13:56:45;;;;;;;1.70;1.50;;;20.30;99.90;;;;;;5061958;28;20454;-80
2022/10/04 13:59:23;;;;;;;1.50;1.40;;;20.30;99.90;;;;;;5059570;28;20476;-79
2022/10/04 14:02:38;;;;;;;1.73;1.60;;;20.30;99.90;;;;;;5059283;28;20545;-79
2022/10/04 14:05:41;;;;;;;1.80;1.50;;;20.40;99.90;;;;;;5060271;28;20509;-79
2022/10/04 14:08:36;;;;;;;1.50;1.40;;;20.40;99.90;;;;;;5055626;28;21005;-80
2022/10/04 14:11:30;;;;;;;2.40;1.30;;;20.40;99.90;;;;;;5086691;28;20878;-80
2022/10/04 14:14:23;;;;;;;1.50;1.40;;;20.40;99.90;;;;;;5039046;28;20459;-81
2022/10/04 14:17:14;;;;;;;1.80;1.50;;;20.40;99.90;;;;;;5059462;28;20478;-80
2022/10/04 14:20:24;;;;;;;1.63;1.30;;;20.40;99.90;;;;;;5064631;28;20972;-79
2022/10/04 14:23:29;;;;;;;1.60;1.43;;;20.40;99.90;;;;;;5045383;28;20475;-80
2022/10/04 14:26:22;;;;;;;1.60;1.50;;;20.40;99.90;;;;;;5056060;28;20462;-79
2022/10/04 14:29:28;;;;;;;1.57;1.40;;;20.40;99.90;;;;;;5062550;28;20510;-80